This is the latest recevied weather packets stored in our database for station/object KN6CRX. If no packets are shown the sender has not sent any weather packets the latest 10 day(s).
| Time | Temp. | Humidity | Pressure | Rain* | Wind** | Luminosity | Snow |
|---|---|---|---|---|---|---|---|
| 1787687717 | 30.56° C | 29% | 1025.1 hPa | 0 mm | - | 860 W/m² | - |
| 1787687412 | 30° C | 29% | 1025.2 hPa | 0 mm | - | 860 W/m² | - |
| 1787687109 | 30.56° C | 29% | 1025.5 hPa | 0 mm | - | 859 W/m² | - |
| 1787686804 | 30° C | 32% | 1025.3 hPa | 0 mm | - | 863 W/m² | - |
| 1787686499 | 30° C | 30% | 1025.4 hPa | 0 mm | - | 867 W/m² | - |
| 1787686200 | 30.56° C | 28% | 1025.6 hPa | 0 mm | - | 865 W/m² | - |
| 1787685895 | 30° C | 33% | 1025.6 hPa | 0 mm | - | 857 W/m² | - |
| 1787685590 | 29.44° C | 32% | 1025.6 hPa | 0 mm | - | 855 W/m² | - |
| 1787685285 | 28.89° C | 35% | 1025.9 hPa | 0 mm | - | 852 W/m² | - |
| 1787684984 | 28.33° C | 32% | 1025.8 hPa | 0 mm | - | 852 W/m² | - |
| 1787684681 | 28.89° C | 31% | 1025.9 hPa | 0 mm | - | 846 W/m² | - |
| 1787684379 | 28.89° C | 31% | 1025.9 hPa | 0 mm | - | 845 W/m² | - |
| 1787684075 | 28.89° C | 31% | 1026 hPa | 0 mm | - | 840 W/m² | - |
| 1787683773 | 28.33° C | 33% | 1026 hPa | 0 mm | - | 222 W/m² | - |
| 1787683469 | 28.33° C | 35% | 1026 hPa | 0 mm | - | 728 W/m² | - |
| 1787683165 | 28.89° C | 35% | 1026.1 hPa | 0 mm | - | 825 W/m² | - |
| 1787682862 | 27.78° C | 37% | 1026.1 hPa | 0 mm | - | 400 W/m² | - |
| 1787682558 | 27.78° C | 37% | 1026.2 hPa | 0 mm | - | 809 W/m² | - |
| 1787682253 | 27.78° C | 37% | 1026.4 hPa | 0 mm | - | 804 W/m² | - |
| 1787681948 | 27.78° C | 38% | 1026.3 hPa | 0 mm | - | 797 W/m² | - |
| 1787681649 | 26.67° C | 39% | 1026.2 hPa | 0 mm | - | 792 W/m² | - |
| 1787681343 | 26.67° C | 39% | 1026.3 hPa | 0 mm | - | 778 W/m² | - |
| 1787681039 | 26.67° C | 41% | 1026.4 hPa | 0 mm | - | 762 W/m² | - |
| 1787680738 | 26.11° C | 37% | 1026.4 hPa | 0 mm | - | 656 W/m² | - |
| 1787680433 | 26.67° C | 35% | 1026.6 hPa | 0 mm | - | 754 W/m² | - |
* Rain latest hour (hover to see other rain measurements)
** Current wind speed in m/s (hover to see current wind gust speed)